createdAt,value
2022-11-04T00:01:05.543Z,1.55
2022-11-04T00:04:07.847Z,2.05
2022-11-04T00:07:29.507Z,1.40
2022-11-04T00:10:51.208Z,1.30
2022-11-04T00:13:52.848Z,1.60
2022-11-04T00:17:13.283Z,2.10
2022-11-04T00:20:34.299Z,1.45
2022-11-04T00:23:54.770Z,1.48
2022-11-04T00:27:16.790Z,1.35
2022-11-04T00:30:18.400Z,1.33
2022-11-04T00:33:26.108Z,1.10
2022-11-04T00:36:27.759Z,1.30
2022-11-04T00:39:29.668Z,1.35
2022-11-04T00:42:32.895Z,1.35
2022-11-04T00:45:34.504Z,1.45
2022-11-04T00:48:36.158Z,1.33
2022-11-04T00:51:37.716Z,1.50
2022-11-04T00:54:39.418Z,1.50
2022-11-04T00:57:42.449Z,1.63
2022-11-04T01:00:44.034Z,1.10
2022-11-04T01:03:46.243Z,1.30
2022-11-04T01:06:48.289Z,1.17
2022-11-04T01:09:50.060Z,0.88
2022-11-04T01:12:53.431Z,0.93
2022-11-04T01:15:58.012Z,1.20
2022-11-04T01:18:59.599Z,0.95
2022-11-04T01:22:01.235Z,0.75
2022-11-04T01:25:02.935Z,0.90
2022-11-04T01:28:06.025Z,0.73
2022-11-04T01:31:09.835Z,0.82
2022-11-04T01:34:11.479Z,0.85
2022-11-04T01:37:13.108Z,0.45
2022-11-04T01:40:14.833Z,0.55
2022-11-04T01:43:19.523Z,0.50
2022-11-04T01:46:27.982Z,0.32
2022-11-04T01:49:33.056Z,0.70
2022-11-04T01:52:40.373Z,0.30
2022-11-04T01:55:46.402Z,0.55
2022-11-04T01:58:53.432Z,0.40
2022-11-04T02:01:55.141Z,0.30
2022-11-04T02:04:56.867Z,0.38
2022-11-04T02:08:01.200Z,0.50
2022-11-04T02:11:06.262Z,0.30
2022-11-04T02:14:09.199Z,0.40
2022-11-04T02:17:22.290Z,0.30
2022-11-04T02:20:44.177Z,0.40
2022-11-04T02:24:07.909Z,0.30
2022-11-04T02:27:28.087Z,0.30
2022-11-04T02:30:36.346Z,0.38
2022-11-04T02:33:41.846Z,0.30
2022-11-04T02:36:47.512Z,0.30
2022-11-04T02:39:55.218Z,0.50
2022-11-04T02:43:01.616Z,0.32
2022-11-04T02:46:10.447Z,0.40
2022-11-04T02:49:15.754Z,0.40
2022-11-04T02:52:23.351Z,0.22
2022-11-04T02:55:30.877Z,0.52
2022-11-04T02:58:37.163Z,0.57
2022-11-04T03:01:43.274Z,0.20
2022-11-04T03:04:51.475Z,0.40
2022-11-04T03:07:57.554Z,0.50
2022-11-04T03:11:03.046Z,0.25
2022-11-04T03:14:09.974Z,0.28
2022-11-04T03:17:20.527Z,0.30
2022-11-04T03:20:25.550Z,0.40
2022-11-04T03:23:27.521Z,0.22
2022-11-04T03:26:34.863Z,0.30
2022-11-04T03:29:45.019Z,0.45
2022-11-04T03:32:59.163Z,0.30
2022-11-04T03:36:03.011Z,0.30
2022-11-04T03:39:04.616Z,0.20
2022-11-04T03:42:20.333Z,0.20
2022-11-04T03:45:23.148Z,0.28
2022-11-04T03:48:26.753Z,0.30
2022-11-04T03:51:28.309Z,0.32
2022-11-04T03:54:35.491Z,0.30
2022-11-04T03:57:48.815Z,0.10
2022-11-04T04:00:58.142Z,0.20
2022-11-04T04:04:07.913Z,0.20
2022-11-04T04:07:17.509Z,0.40
2022-11-04T04:10:41.812Z,0.52
2022-11-04T04:14:01.074Z,0.30
2022-11-04T04:20:19.898Z,0.98
2022-11-04T04:23:44.632Z,0.40
2022-11-04T04:27:07.390Z,0.28
2022-11-04T04:30:12.156Z,0.17
2022-11-04T04:33:16.719Z,0.10
2022-11-04T04:36:19.982Z,0.28
2022-11-04T04:39:44.247Z,0.35
2022-11-04T04:43:04.744Z,0.25
2022-11-04T04:46:06.456Z,0.32
2022-11-04T04:49:09.467Z,0.32
2022-11-04T04:52:12.639Z,0.22
2022-11-04T04:55:14.670Z,0.20
2022-11-04T04:58:16.252Z,0.10
2022-11-04T05:01:18.007Z,0.20
2022-11-04T05:04:19.662Z,0.30
2022-11-04T05:07:22.757Z,0.20
2022-11-04T05:10:24.324Z,0.50
2022-11-04T05:13:26.020Z,0.40
2022-11-04T05:16:27.633Z,0.20
2022-11-04T05:19:29.248Z,0.47
2022-11-04T05:22:32.227Z,0.65
2022-11-04T05:25:33.920Z,0.43
2022-11-04T05:28:35.774Z,1.05
2022-11-04T05:31:37.426Z,0.95
2022-11-04T05:34:39.003Z,1.05
2022-11-04T05:37:41.975Z,0.57
2022-11-04T05:40:43.584Z,0.30
2022-11-04T05:43:45.226Z,0.52
2022-11-04T05:46:46.938Z,0.85
2022-11-04T05:49:48.599Z,0.50
2022-11-04T05:52:51.589Z,0.25
2022-11-04T05:55:53.190Z,0.38
2022-11-04T05:58:55.253Z,0.82
2022-11-04T06:01:57.046Z,0.15
2022-11-04T06:04:59.037Z,0.22
2022-11-04T06:08:02.048Z,0.20
2022-11-04T06:11:05.254Z,0.22
2022-11-04T06:14:06.855Z,0.17
2022-11-04T06:20:18.497Z,0.40
2022-11-04T06:23:21.445Z,0.55
2022-11-04T06:26:27.835Z,0.40
2022-11-04T06:29:30.208Z,0.30
2022-11-04T06:32:31.911Z,0.50
2022-11-04T06:35:33.502Z,0.40
2022-11-04T06:38:37.809Z,0.30
2022-11-04T06:41:39.832Z,0.30
2022-11-04T06:44:42.539Z,0.30
2022-11-04T06:47:44.143Z,0.30
2022-11-04T06:50:45.756Z,0.30
2022-11-04T06:53:48.864Z,0.30
2022-11-04T06:56:50.544Z,0.00
2022-11-04T06:59:52.339Z,0.15
2022-11-04T07:02:54.102Z,0.20
2022-11-04T07:05:55.795Z,0.30
2022-11-04T07:09:01.052Z,0.40
2022-11-04T07:12:02.740Z,0.38
2022-11-04T07:15:05.096Z,0.52
2022-11-04T07:18:07.223Z,0.57
2022-11-04T07:21:10.309Z,0.03
2022-11-04T07:24:13.563Z,0.20
2022-11-04T07:27:15.251Z,0.28
2022-11-04T07:30:17.019Z,0.20
2022-11-04T07:33:18.696Z,0.30
2022-11-04T07:36:20.579Z,0.60
2022-11-04T07:39:23.556Z,0.20
2022-11-04T07:42:25.126Z,0.40
2022-11-04T07:45:30.029Z,0.43
2022-11-04T07:48:32.076Z,0.30
2022-11-04T07:51:34.358Z,0.32
2022-11-04T07:54:37.376Z,0.40
2022-11-04T07:57:39.108Z,0.40
2022-11-04T08:00:41.633Z,0.20
2022-11-04T08:03:43.443Z,0.30
2022-11-04T08:06:45.311Z,0.38
2022-11-04T08:09:48.372Z,0.20
2022-11-04T08:12:51.630Z,0.40
2022-11-04T08:15:53.303Z,0.35
2022-11-04T08:18:55.580Z,0.88
2022-11-04T08:21:57.222Z,0.30
2022-11-04T08:25:00.500Z,0.22
2022-11-04T08:28:02.124Z,0.40
2022-11-04T08:31:05.843Z,0.30
2022-11-04T08:34:08.562Z,0.30
2022-11-04T08:37:13.033Z,0.30
2022-11-04T08:40:16.089Z,0.40
2022-11-04T08:43:17.718Z,0.30
2022-11-04T08:46:19.552Z,0.40
2022-11-04T08:49:21.697Z,0.10
2022-11-04T08:52:23.774Z,0.30
2022-11-04T08:55:28.832Z,0.70
2022-11-04T08:58:30.464Z,0.25
2022-11-04T09:01:35.859Z,0.52
2022-11-04T09:04:37.904Z,0.20
2022-11-04T09:07:39.533Z,0.50
2022-11-04T09:10:43.636Z,0.20
2022-11-04T09:13:45.633Z,0.30
2022-11-04T09:16:47.356Z,0.40
2022-11-04T09:19:49.233Z,0.40
2022-11-04T09:22:50.985Z,0.47
2022-11-04T09:25:55.993Z,0.40
2022-11-04T09:28:58.482Z,0.30
2022-11-04T09:32:00.362Z,0.35
2022-11-04T09:35:02.832Z,0.25
2022-11-04T09:38:04.778Z,0.10
2022-11-04T09:41:34.678Z,0.40
2022-11-04T09:45:15.092Z,0.38
2022-11-04T09:48:11.603Z,0.10
2022-11-04T09:51:32.499Z,0.20
2022-11-04T09:54:50.337Z,0.40
2022-11-04T09:57:55.751Z,0.20
2022-11-04T10:01:02.808Z,0.40
2022-11-04T10:04:18.247Z,0.73
2022-11-04T10:07:37.196Z,0.22
2022-11-04T10:10:47.603Z,0.55
2022-11-04T10:14:13.039Z,0.43
2022-11-04T10:17:31.782Z,0.20
2022-11-04T10:20:49.281Z,0.30
2022-11-04T10:24:06.676Z,0.22
2022-11-04T10:27:15.379Z,0.22
2022-11-04T10:30:20.983Z,0.40
2022-11-04T10:33:29.041Z,0.30
2022-11-04T10:36:31.591Z,0.20
2022-11-04T10:39:40.547Z,0.50
2022-11-04T10:42:42.465Z,1.02
2022-11-04T10:45:52.271Z,0.70
2022-11-04T10:49:01.378Z,0.70
2022-11-04T10:52:03.660Z,0.75
2022-11-04T10:55:14.749Z,0.40
2022-11-04T10:58:22.538Z,0.40
2022-11-04T11:01:29.027Z,0.50
2022-11-04T11:04:33.307Z,0.40
2022-11-04T11:07:37.079Z,0.32
2022-11-04T11:10:51.770Z,0.40
2022-11-04T11:13:53.587Z,0.40
2022-11-04T11:16:57.459Z,0.30
2022-11-04T11:20:02.678Z,0.65
2022-11-04T11:23:10.310Z,0.30
2022-11-04T11:26:14.472Z,0.60
2022-11-04T11:29:22.999Z,0.47
2022-11-04T11:32:32.070Z,0.40
2022-11-04T11:35:41.308Z,0.50
2022-11-04T11:38:54.941Z,0.40
2022-11-04T11:42:00.353Z,0.43
2022-11-04T11:45:06.602Z,0.30
2022-11-04T11:48:27.923Z,0.32
2022-11-04T11:51:32.740Z,0.30
2022-11-04T11:54:37.648Z,0.30
2022-11-04T12:01:25.145Z,0.25
2022-11-04T12:11:31.361Z,0.45
2022-11-04T12:14:48.892Z,0.50
2022-11-04T12:18:02.406Z,0.40
2022-11-04T12:21:13.190Z,0.63
2022-11-04T12:27:31.037Z,0.70
2022-11-04T12:30:38.679Z,0.40
2022-11-04T12:33:47.112Z,0.52
2022-11-04T12:37:07.528Z,0.70
2022-11-04T12:40:20.464Z,0.80
2022-11-04T12:43:29.076Z,0.47
2022-11-04T12:46:38.624Z,0.40
2022-11-04T12:49:57.253Z,0.63
2022-11-04T12:53:28.059Z,0.47
2022-11-04T12:56:37.526Z,0.55
2022-11-04T12:59:52.694Z,0.20
2022-11-04T13:03:00.717Z,0.52
2022-11-04T13:06:05.776Z,0.60
2022-11-04T13:09:14.332Z,0.45
2022-11-04T13:12:19.683Z,0.75
2022-11-04T13:15:23.553Z,1.00
2022-11-04T13:18:30.388Z,0.70
2022-11-04T13:21:36.214Z,0.70
2022-11-04T13:24:43.723Z,1.10
2022-11-04T13:27:48.049Z,1.13
2022-11-04T13:31:03.305Z,0.70
2022-11-04T13:34:16.127Z,0.63
2022-11-04T13:37:26.028Z,1.38
2022-11-04T13:40:41.457Z,1.50
2022-11-04T13:43:49.510Z,0.90
2022-11-04T13:46:54.143Z,0.77
2022-11-04T13:52:58.049Z,0.80
2022-11-04T13:56:20.918Z,0.40
2022-11-04T13:59:27.472Z,0.40
2022-11-04T14:02:41.220Z,0.40
2022-11-04T14:06:01.135Z,0.60
2022-11-04T14:09:39.522Z,0.57
2022-11-04T14:12:42.513Z,0.20
2022-11-04T14:16:01.731Z,0.77
2022-11-04T14:19:42.090Z,0.40
2022-11-04T14:22:49.571Z,0.85
2022-11-04T14:26:01.480Z,0.43
2022-11-04T14:29:08.237Z,0.60
2022-11-04T14:32:12.768Z,0.50
2022-11-04T14:35:18.406Z,0.47
2022-11-04T14:38:28.691Z,0.35
2022-11-04T14:41:49.996Z,0.70
2022-11-04T14:44:53.216Z,0.60
2022-11-04T14:47:57.302Z,0.63
2022-11-04T14:50:59.365Z,0.57
2022-11-04T14:54:05.632Z,0.55
2022-11-04T14:57:13.957Z,0.70
2022-11-04T15:00:34.559Z,0.85
2022-11-04T15:07:01.934Z,0.40
2022-11-04T15:10:20.081Z,0.60
2022-11-04T15:13:21.798Z,0.55
2022-11-04T15:16:27.837Z,0.70
2022-11-04T15:19:31.414Z,0.80
2022-11-04T15:22:33.216Z,1.02
2022-11-04T15:25:35.024Z,0.95
2022-11-04T15:28:45.034Z,1.02
2022-11-04T15:31:59.216Z,0.57
2022-11-04T15:35:01.305Z,0.60
2022-11-04T15:38:03.851Z,0.68
2022-11-04T15:41:25.729Z,0.95
2022-11-04T15:44:29.803Z,0.50
2022-11-04T15:47:32.820Z,0.50
2022-11-04T15:50:34.510Z,0.75
2022-11-04T15:53:46.802Z,0.50
2022-11-04T15:56:52.732Z,0.32
2022-11-04T15:59:58.505Z,0.55
2022-11-04T16:03:02.243Z,0.52
2022-11-04T16:06:06.915Z,0.80
2022-11-04T16:09:21.084Z,1.70
2022-11-04T16:12:27.925Z,1.45
2022-11-04T16:15:31.862Z,0.75
2022-11-04T16:18:37.182Z,0.90
2022-11-04T16:21:40.706Z,0.80
2022-11-04T16:24:48.340Z,0.85
2022-11-04T16:27:50.774Z,1.73
2022-11-04T16:30:56.843Z,2.03
2022-11-04T16:34:00.167Z,1.60
2022-11-04T16:37:02.237Z,1.60
2022-11-04T16:40:06.229Z,1.20
2022-11-04T16:43:09.752Z,1.00
2022-11-04T16:46:12.003Z,0.98
2022-11-04T16:49:16.395Z,0.70
2022-11-04T16:52:25.414Z,0.32
2022-11-04T16:55:29.368Z,0.40
2022-11-04T16:58:31.209Z,1.00
2022-11-04T17:01:33.053Z,1.08
2022-11-04T17:04:36.182Z,1.30
2022-11-04T17:07:52.080Z,0.75
2022-11-04T17:10:56.077Z,1.00
2022-11-04T17:13:57.784Z,0.70
2022-11-04T17:16:59.415Z,0.95
2022-11-04T17:20:02.455Z,0.80
2022-11-04T17:23:04.242Z,0.90
2022-11-04T17:26:05.933Z,1.00
2022-11-04T17:29:08.490Z,1.13
2022-11-04T17:35:17.495Z,1.13
2022-11-04T17:38:19.293Z,0.80
2022-11-04T17:41:39.518Z,0.60
2022-11-04T17:44:41.131Z,0.80
2022-11-04T17:47:42.713Z,0.45
2022-11-04T17:50:47.123Z,0.65
2022-11-04T17:53:49.305Z,0.57
2022-11-04T17:56:51.275Z,0.47
2022-11-04T17:59:52.937Z,0.40
2022-11-04T18:02:54.703Z,0.50
2022-11-04T18:05:59.422Z,0.32
2022-11-04T18:09:01.960Z,0.50
2022-11-04T18:12:22.694Z,0.60
2022-11-04T18:15:24.529Z,0.68
2022-11-04T18:18:26.265Z,0.70
2022-11-04T18:21:30.875Z,0.82
2022-11-04T18:24:32.672Z,1.15
2022-11-04T18:27:34.373Z,0.70
2022-11-04T18:30:38.990Z,0.98
2022-11-04T18:33:43.372Z,0.70
2022-11-04T18:36:47.359Z,0.80
2022-11-04T18:39:49.004Z,0.65
2022-11-04T18:42:50.852Z,0.68
2022-11-04T18:45:53.562Z,0.90
2022-11-04T18:48:55.209Z,0.90
2022-11-04T18:52:00.188Z,1.02
2022-11-04T18:55:01.831Z,0.95
2022-11-04T18:58:05.351Z,1.08
2022-11-04T19:01:09.306Z,1.20
2022-11-04T19:04:12.957Z,1.60
2022-11-04T19:07:16.306Z,1.33
2022-11-04T19:10:18.140Z,1.10
2022-11-04T19:13:20.493Z,1.58
2022-11-04T19:16:22.766Z,1.70
2022-11-04T19:19:24.379Z,1.30
2022-11-04T19:22:27.473Z,1.77
2022-11-04T19:25:29.202Z,1.20
2022-11-04T19:28:46.933Z,1.35
2022-11-04T19:31:49.633Z,1.98
2022-11-04T19:34:51.260Z,2.00
2022-11-04T19:37:54.809Z,3.13
2022-11-04T19:40:56.522Z,2.92
2022-11-04T19:43:58.305Z,2.15
2022-11-04T19:46:59.932Z,2.05
2022-11-04T19:50:02.349Z,2.42
2022-11-04T19:53:05.467Z,2.40
2022-11-04T19:56:07.447Z,2.60
2022-11-04T19:59:10.735Z,2.45
2022-11-04T20:02:14.084Z,2.47
2022-11-04T20:05:16.604Z,1.75
2022-11-04T20:08:19.754Z,2.30
2022-11-04T20:11:21.513Z,2.05
2022-11-04T20:14:23.418Z,2.92
2022-11-04T20:17:25.235Z,3.60
2022-11-04T20:20:26.899Z,2.65
2022-11-04T20:23:29.944Z,2.22
2022-11-04T20:26:35.005Z,2.55
2022-11-04T20:29:36.643Z,2.88
2022-11-04T20:32:38.396Z,2.15
2022-11-04T20:35:40.446Z,2.10
2022-11-04T20:38:43.484Z,1.88
2022-11-04T20:41:46.123Z,2.00
2022-11-04T20:44:47.889Z,2.13
2022-11-04T20:47:49.564Z,2.10
2022-11-04T20:50:51.305Z,1.92
2022-11-04T20:54:00.153Z,1.85
2022-11-04T20:57:02.147Z,1.60
2022-11-04T21:00:07.163Z,1.67
2022-11-04T21:03:08.830Z,1.52
2022-11-04T21:06:10.852Z,2.38
2022-11-04T21:09:15.743Z,1.90
2022-11-04T21:15:38.621Z,1.55
2022-11-04T21:18:40.780Z,1.52
2022-11-04T21:21:43.239Z,1.27
2022-11-04T21:24:46.231Z,1.80
2022-11-04T21:27:47.904Z,1.75
2022-11-04T21:30:52.041Z,1.52
2022-11-04T21:33:54.240Z,1.42
2022-11-04T21:36:55.883Z,1.80
2022-11-04T21:39:58.927Z,1.65
2022-11-04T21:43:00.575Z,1.70
2022-11-04T21:46:03.419Z,2.20
2022-11-04T21:49:05.445Z,1.88
2022-11-04T21:52:07.020Z,2.15
2022-11-04T21:55:10.621Z,1.83
2022-11-04T21:58:12.588Z,1.95
2022-11-04T22:01:17.123Z,1.75
2022-11-04T22:04:18.864Z,1.40
2022-11-04T22:07:40.483Z,1.42
2022-11-04T22:10:44.004Z,1.77
2022-11-04T22:13:46.227Z,2.10
2022-11-04T22:16:47.961Z,1.83
2022-11-04T22:19:49.584Z,1.77
2022-11-04T22:22:51.223Z,1.85
2022-11-04T22:25:59.228Z,2.20
2022-11-04T22:29:01.267Z,1.77
2022-11-04T22:32:02.884Z,2.00
2022-11-04T22:35:05.681Z,2.05
2022-11-04T22:38:07.324Z,1.75
2022-11-04T22:41:12.836Z,2.03
2022-11-04T22:44:14.984Z,2.08
2022-11-04T22:47:16.730Z,1.92
2022-11-04T22:50:18.906Z,2.10
2022-11-04T22:53:20.760Z,2.05
2022-11-04T22:56:23.741Z,2.03
2022-11-04T22:59:25.571Z,1.75
2022-11-04T23:02:32.443Z,2.03
2022-11-04T23:08:41.316Z,2.05
2022-11-04T23:12:02.807Z,2.20
2022-11-04T23:15:23.564Z,1.92
2022-11-04T23:18:43.282Z,1.63
2022-11-04T23:22:03.474Z,2.22
2022-11-04T23:25:06.428Z,1.92
2022-11-04T23:28:28.214Z,2.30
2022-11-04T23:31:29.888Z,2.13
2022-11-04T23:34:50.107Z,2.50
2022-11-04T23:37:56.908Z,1.75
2022-11-04T23:41:19.928Z,2.28
2022-11-04T23:44:43.181Z,2.20
2022-11-04T23:48:05.949Z,2.50
2022-11-04T23:51:28.913Z,3.00
2022-11-04T23:54:49.117Z,3.28
2022-11-04T23:58:09.482Z,2.38
